Purki — 9HA2386 — position and weather

sailwx.info

Track history (hours):
 
Tides and Currents Weather Stations Pressure Air Temp Water Temp Dewpoint Dewpoint Depression Visibility Wind Speed Wind Dir Waves Ship Positions

Purki

Last reported at 2014-Sep-16 02:28 UTC. Time now 2014-Sep-17 11:39 UTC.
Position N 36°46' E 003°07'.

Length 147 m; draft 7.4 m.

Type: Ship. MMSI: 248495000.

Date/timePositionNaut miles runAvg speedWind from/ knotsBaromVisibWave heightAir tempDewpointWater temp
2014-Sep-16 02:28N 36°46' E 003°07'66 2.8
2014-Sep-15 03:05N 37°00' E 004°27'713.9
2014-Sep-15 02:33N 37°01' E 004°37'9313.3
2014-Sep-14 19:33N 37°09' E 006°33'1313.4
2014-Sep-14 18:33N 37°09' E 006°50'1513.4
2014-Sep-14 17:25N 37°08' E 007°09'1414.8
2014-Sep-14 16:29N 37°07' E 007°26'1814.2
2014-Sep-14 15:11N 36°59' E 007°47'  
2014-Sep-11 21:33N 37°17' E 009°55'0 0.0
2014-Sep-11 20:26N 37°17' E 009°55'1411.4
2014-Sep-11 19:14N 37°18' E 010°12'913.3
2014-Sep-11 18:32N 37°17' E 010°24'1313.0
2014-Sep-11 17:33N 37°15' E 010°40'1313.2
2014-Sep-11 16:33N 37°13' E 010°56'1312.8
2014-Sep-11 15:34N 37°07' E 011°10'1313.0
2014-Sep-11 14:32N 36°57' E 011°21'1313.1
2014-Sep-11 13:34N 36°48' E 011°32'1313.1
2014-Sep-11 12:34N 36°38' E 011°43'1312.9
2014-Sep-11 11:34N 36°29' E 011°54'1312.9
2014-Sep-11 10:34N 36°19' E 012°05'14313.0
2014-Sep-10 23:34N 34°14' E 013°31'1413.9
2014-Sep-10 22:33N 34°02' E 013°38'1714.2
2014-Sep-10 21:20N 33°46' E 013°46'1114.4
2014-Sep-10 20:33N 33°35' E 013°51'1614.3
2014-Sep-10 19:27N 33°21' E 013°59'1414.6
2014-Sep-10 18:30N 33°08' E 014°05'1414.7
2014-Sep-10 17:33N 32°55' E 014°12'1414.5
2014-Sep-10 16:33N 32°42' E 014°19'1 1.2
2014-Sep-10 15:29N 32°41' E 014°19'0 0.0
2014-Sep-10 14:32N 32°41' E 014°19'0 0.1
2014-Sep-10 13:11N 32°41' E 014°19'3 4.0
2014-Sep-10 12:24N 32°41' E 014°15'1 0.6
2014-Sep-10 11:30N 32°40' E 014°15'0 0.0
2014-Sep-10 10:27N 32°40' E 014°15'0 0.0
2014-Sep-09 17:24N 32°40' E 014°15'0 0.0
2014-Sep-09 16:30N 32°40' E 014°15'0 0.0
2014-Sep-09 15:24N 32°40' E 014°15'12 0.5
2014-Sep-08 16:19N 32°39' E 014°29'11 5.2
2014-Sep-08 14:16N 32°36' E 014°42'3 1.0
2014-Sep-08 11:23N 32°35' E 014°45'27 1.3
2014-Sep-07 14:32N 32°22' E 015°13'0 0.0
2014-Sep-07 13:19N 32°22' E 015°13'0 0.0
2014-Sep-06 17:07N 32°22' E 015°13'0 0.0
2014-Sep-06 16:33N 32°22' E 015°13'0 0.0
2014-Sep-06 15:33N 32°22' E 015°13'0 0.0
2014-Sep-06 14:33N 32°22' E 015°13'0 0.0
2014-Sep-06 13:33N 32°22' E 015°13'  
Track history (hours):
 
Tides and Currents Weather Stations Pressure Air Temp Water Temp Dewpoint Dewpoint Depression Visibility Wind Speed Wind Dir Waves Ship Positions

Purki

Last reported at 2014-Sep-16 02:28 UTC. Time now 2014-Sep-17 11:39 UTC.
Position N 36°46' E 003°07'.

Length 147 m; draft 7.4 m.

Type: Ship. MMSI: 248495000.

Date/timePositionNaut miles runAvg speedWind from/ knotsBaromVisibWave heightAir tempDewpointWater temp
2014-Sep-16 02:28N 36°46' E 003°07'66 2.8
2014-Sep-15 03:05N 37°00' E 004°27'713.9
2014-Sep-15 02:33N 37°01' E 004°37'9313.3
2014-Sep-14 19:33N 37°09' E 006°33'1313.4
2014-Sep-14 18:33N 37°09' E 006°50'1513.4
2014-Sep-14 17:25N 37°08' E 007°09'1414.8
2014-Sep-14 16:29N 37°07' E 007°26'1814.2
2014-Sep-14 15:11N 36°59' E 007°47'  
2014-Sep-11 21:33N 37°17' E 009°55'0 0.0
2014-Sep-11 20:26N 37°17' E 009°55'1411.4
2014-Sep-11 19:14N 37°18' E 010°12'913.3
2014-Sep-11 18:32N 37°17' E 010°24'1313.0
2014-Sep-11 17:33N 37°15' E 010°40'1313.2
2014-Sep-11 16:33N 37°13' E 010°56'1312.8
2014-Sep-11 15:34N 37°07' E 011°10'1313.0
2014-Sep-11 14:32N 36°57' E 011°21'1313.1
2014-Sep-11 13:34N 36°48' E 011°32'1313.1
2014-Sep-11 12:34N 36°38' E 011°43'1312.9
2014-Sep-11 11:34N 36°29' E 011°54'1312.9
2014-Sep-11 10:34N 36°19' E 012°05'14313.0
2014-Sep-10 23:34N 34°14' E 013°31'1413.9
2014-Sep-10 22:33N 34°02' E 013°38'1714.2
2014-Sep-10 21:20N 33°46' E 013°46'1114.4
2014-Sep-10 20:33N 33°35' E 013°51'1614.3
2014-Sep-10 19:27N 33°21' E 013°59'1414.6
2014-Sep-10 18:30N 33°08' E 014°05'1414.7
2014-Sep-10 17:33N 32°55' E 014°12'1414.5
2014-Sep-10 16:33N 32°42' E 014°19'1 1.2
2014-Sep-10 15:29N 32°41' E 014°19'0 0.0
2014-Sep-10 14:32N 32°41' E 014°19'0 0.1
2014-Sep-10 13:11N 32°41' E 014°19'3 4.0
2014-Sep-10 12:24N 32°41' E 014°15'1 0.6
2014-Sep-10 11:30N 32°40' E 014°15'0 0.0
2014-Sep-10 10:27N 32°40' E 014°15'0 0.0
2014-Sep-09 17:24N 32°40' E 014°15'0 0.0
2014-Sep-09 16:30N 32°40' E 014°15'0 0.0
2014-Sep-09 15:24N 32°40' E 014°15'12 0.5
2014-Sep-08 16:19N 32°39' E 014°29'11 5.2
2014-Sep-08 14:16N 32°36' E 014°42'3 1.0
2014-Sep-08 11:23N 32°35' E 014°45'27 1.3
2014-Sep-07 14:32N 32°22' E 015°13'0 0.0
2014-Sep-07 13:19N 32°22' E 015°13'0 0.0
2014-Sep-06 17:07N 32°22' E 015°13'0 0.0
2014-Sep-06 16:33N 32°22' E 015°13'0 0.0
2014-Sep-06 15:33N 32°22' E 015°13'0 0.0
2014-Sep-06 14:33N 32°22' E 015°13'0 0.0
2014-Sep-06 13:33N 32°22' E 015°13'  

Dump ship's entire track history